sensor_id;sensor_type;location;lat;lon;timestamp;pressure;altitude;pressure_sealevel;temperature;humidity
3832;BME280;12460;42.662;23.288;2023-03-22T00:09:11;94198.66;;;11.55;70.29
3832;BME280;12460;42.662;23.288;2023-03-22T00:24:16;94206.81;;;11.51;70.42
3832;BME280;12460;42.662;23.288;2023-03-22T00:39:19;94190.78;;;11.44;70.40
3832;BME280;12460;42.662;23.288;2023-03-22T00:54:23;94189.00;;;11.49;70.01
3832;BME280;12460;42.662;23.288;2023-03-22T01:09:29;94173.13;;;11.44;70.34
3832;BME280;12460;42.662;23.288;2023-03-22T01:24:36;94168.50;;;11.39;69.80
3832;BME280;12460;42.662;23.288;2023-03-22T01:39:41;94151.00;;;11.31;69.60
3832;BME280;12460;42.662;23.288;2023-03-22T01:54:51;94146.09;;;11.31;69.44
3832;BME280;12460;42.662;23.288;2023-03-22T02:10:21;94151.13;;;11.23;69.72
3832;BME280;12460;42.662;23.288;2023-03-22T02:25:45;94154.03;;;11.15;69.71
3832;BME280;12460;42.662;23.288;2023-03-22T02:41:12;94167.94;;;11.13;69.56
3832;BME280;12460;42.662;23.288;2023-03-22T02:56:27;94172.97;;;11.15;69.65
3832;BME280;12460;42.662;23.288;2023-03-22T03:11:37;94171.34;;;11.12;69.83
3832;BME280;12460;42.662;23.288;2023-03-22T03:42:05;94188.59;;;10.99;68.54
3832;BME280;12460;42.662;23.288;2023-03-22T03:57:14;94202.41;;;11.04;68.26
3832;BME280;12460;42.662;23.288;2023-03-22T04:12:18;94199.28;;;11.00;68.66
3832;BME280;12460;42.662;23.288;2023-03-22T04:27:46;94213.19;;;10.98;68.55
3832;BME280;12460;42.662;23.288;2023-03-22T04:42:55;94219.22;;;10.95;68.58
3832;BME280;12460;42.662;23.288;2023-03-22T04:58:15;94239.91;;;10.90;68.64
3832;BME280;12460;42.662;23.288;2023-03-22T05:13:21;94245.69;;;10.92;67.95
3832;BME280;12460;42.662;23.288;2023-03-22T05:28:26;94256.09;;;10.99;67.77
3832;BME280;12460;42.662;23.288;2023-03-22T05:43:43;94259.75;;;11.09;67.48
3832;BME280;12460;42.662;23.288;2023-03-22T05:58:47;94273.88;;;11.18;67.20
3832;BME280;12460;42.662;23.288;2023-03-22T06:13:54;94278.41;;;11.31;67.16
3832;BME280;12460;42.662;23.288;2023-03-22T06:29:05;94295.25;;;11.48;66.85
3832;BME280;12460;42.662;23.288;2023-03-22T06:44:10;94298.03;;;11.65;66.17
3832;BME280;12460;42.662;23.288;2023-03-22T06:59:28;94319.97;;;11.93;65.31
3832;BME280;12460;42.662;23.288;2023-03-22T07:14:32;94299.94;;;11.89;65.04
3832;BME280;12460;42.662;23.288;2023-03-22T07:29:50;94328.59;;;12.32;63.04
3832;BME280;12460;42.662;23.288;2023-03-22T07:44:55;94353.41;;;12.43;62.50
3832;BME280;12460;42.662;23.288;2023-03-22T08:00:00;94360.47;;;12.25;62.55
3832;BME280;12460;42.662;23.288;2023-03-22T08:15:29;94352.41;;;12.12;62.91
3832;BME280;12460;42.662;23.288;2023-03-22T08:30:34;94375.00;;;12.21;63.62
3832;BME280;12460;42.662;23.288;2023-03-22T08:45:39;94371.44;;;12.21;62.74
3832;BME280;12460;42.662;23.288;2023-03-22T09:00:49;94392.97;;;12.26;63.39
3832;BME280;12460;42.662;23.288;2023-03-22T09:16:13;94394.00;;;12.21;64.46
3832;BME280;12460;42.662;23.288;2023-03-22T09:31:19;94393.09;;;12.18;64.80
3832;BME280;12460;42.662;23.288;2023-03-22T09:46:39;94387.66;;;12.30;64.56
3832;BME280;12460;42.662;23.288;2023-03-22T10:16:58;94391.78;;;12.65;64.18
3832;BME280;12460;42.662;23.288;2023-03-22T10:32:21;94405.59;;;12.25;63.96
3832;BME280;12460;42.662;23.288;2023-03-22T10:47:38;94400.91;;;12.37;64.38
3832;BME280;12460;42.662;23.288;2023-03-22T11:02:51;94396.72;;;12.38;63.32
3832;BME280;12460;42.662;23.288;2023-03-22T11:18:04;94398.28;;;12.48;62.37
3832;BME280;12460;42.662;23.288;2023-03-22T11:33:20;94386.41;;;12.50;61.58
3832;BME280;12460;42.662;23.288;2023-03-22T11:48:30;94378.44;;;12.66;63.18
3832;BME280;12460;42.662;23.288;2023-03-22T12:03:38;94388.88;;;12.82;63.64
3832;BME280;12460;42.662;23.288;2023-03-22T12:18:54;94376.09;;;12.72;63.38
3832;BME280;12460;42.662;23.288;2023-03-22T12:34:13;94376.41;;;12.85;62.78
3832;BME280;12460;42.662;23.288;2023-03-22T12:49:37;94363.41;;;13.18;61.36
3832;BME280;12460;42.662;23.288;2023-03-22T13:20:19;94365.34;;;13.64;59.39
3832;BME280;12460;42.662;23.288;2023-03-22T13:35:34;94346.13;;;13.62;59.03
3832;BME280;12460;42.662;23.288;2023-03-22T13:50:42;94358.44;;;13.86;56.57
3832;BME280;12460;42.662;23.288;2023-03-22T14:05:56;94356.19;;;14.04;56.33
3832;BME280;12460;42.662;23.288;2023-03-22T14:21:06;94362.63;;;13.85;56.93
3832;BME280;12460;42.662;23.288;2023-03-22T14:36:15;94366.16;;;14.05;55.69
3832;BME280;12460;42.662;23.288;2023-03-22T14:51:34;94372.00;;;13.78;56.34
3832;BME280;12460;42.662;23.288;2023-03-22T15:06:44;94365.75;;;13.79;56.53
3832;BME280;12460;42.662;23.288;2023-03-22T15:22:26;94364.22;;;14.07;55.67
3832;BME280;12460;42.662;23.288;2023-03-22T15:37:31;94365.47;;;13.75;54.72
3832;BME280;12460;42.662;23.288;2023-03-22T15:52:36;94362.84;;;13.29;54.85
3832;BME280;12460;42.662;23.288;2023-03-22T16:07:49;94370.78;;;13.04;54.92
3832;BME280;12460;42.662;23.288;2023-03-22T16:22:53;94385.59;;;12.76;55.84
3832;BME280;12460;42.662;23.288;2023-03-22T16:37:57;94395.47;;;12.48;56.72
3832;BME280;12460;42.662;23.288;2023-03-22T16:53:01;94418.31;;;12.16;57.67
3832;BME280;12460;42.662;23.288;2023-03-22T17:08:04;94432.66;;;11.84;59.28
3832;BME280;12460;42.662;23.288;2023-03-22T17:23:09;94423.72;;;11.44;60.21
3832;BME280;12460;42.662;23.288;2023-03-22T17:38:13;94467.19;;;11.33;60.65
3832;BME280;12460;42.662;23.288;2023-03-22T17:53:16;94484.53;;;11.22;61.40
3832;BME280;12460;42.662;23.288;2023-03-22T18:08:19;94496.75;;;11.00;61.60
3832;BME280;12460;42.662;23.288;2023-03-22T18:23:21;94490.06;;;10.71;62.60
3832;BME280;12460;42.662;23.288;2023-03-22T18:38:24;94503.25;;;10.61;62.97
3832;BME280;12460;42.662;23.288;2023-03-22T18:53:27;94498.34;;;10.36;63.19
3832;BME280;12460;42.662;23.288;2023-03-22T19:08:31;94510.28;;;10.05;63.95
3832;BME280;12460;42.662;23.288;2023-03-22T19:23:33;94499.47;;;9.94;63.21
3832;BME280;12460;42.662;23.288;2023-03-22T19:38:36;94493.16;;;10.25;62.17
3832;BME280;12460;42.662;23.288;2023-03-22T19:53:39;94486.56;;;10.30;61.91
3832;BME280;12460;42.662;23.288;2023-03-22T20:08:44;94481.78;;;10.16;62.01
3832;BME280;12460;42.662;23.288;2023-03-22T20:23:46;94486.72;;;10.00;62.63
3832;BME280;12460;42.662;23.288;2023-03-22T20:38:50;94506.66;;;9.79;63.58
3832;BME280;12460;42.662;23.288;2023-03-22T20:53:53;94498.84;;;9.63;64.00
3832;BME280;12460;42.662;23.288;2023-03-22T21:08:57;94513.28;;;9.44;64.29
3832;BME280;12460;42.662;23.288;2023-03-22T21:24:00;94502.31;;;9.24;64.77
3832;BME280;12460;42.662;23.288;2023-03-22T21:39:03;94511.88;;;9.05;65.69
3832;BME280;12460;42.662;23.288;2023-03-22T21:54:08;94514.88;;;8.92;64.98
3832;BME280;12460;42.662;23.288;2023-03-22T22:09:10;94507.78;;;8.76;65.16
3832;BME280;12460;42.662;23.288;2023-03-22T22:24:13;94510.59;;;8.76;66.55
3832;BME280;12460;42.662;23.288;2023-03-22T22:39:16;94531.69;;;8.92;67.14
3832;BME280;12460;42.662;23.288;2023-03-22T22:54:18;94533.38;;;8.95;67.56
3832;BME280;12460;42.662;23.288;2023-03-22T23:09:22;94528.13;;;8.84;68.43
3832;BME280;12460;42.662;23.288;2023-03-22T23:24:30;94518.22;;;8.61;69.45
3832;BME280;12460;42.662;23.288;2023-03-22T23:39:32;94521.94;;;8.48;69.13
3832;BME280;12460;42.662;23.288;2023-03-22T23:54:35;94523.75;;;8.30;68.79
